sensor_id;sensor_type;location;lat;lon;timestamp;P1;durP1;ratioP1;P2;durP2;ratioP2
22435;SDS011;11385;50.822;4.324;2023-09-07T00:00:19;12.53;;;6.37;;
22435;SDS011;11385;50.822;4.324;2023-09-07T00:02:46;9.00;;;5.78;;
22435;SDS011;11385;50.822;4.324;2023-09-07T00:05:12;9.48;;;5.67;;
22435;SDS011;11385;50.822;4.324;2023-09-07T00:07:39;10.13;;;5.53;;
22435;SDS011;11385;50.822;4.324;2023-09-07T00:10:07;9.53;;;6.20;;
22435;SDS011;11385;50.822;4.324;2023-09-07T00:12:34;9.25;;;5.50;;
22435;SDS011;11385;50.822;4.324;2023-09-07T00:15:00;8.90;;;6.00;;
22435;SDS011;11385;50.822;4.324;2023-09-07T00:17:27;8.33;;;5.72;;
22435;SDS011;11385;50.822;4.324;2023-09-07T00:19:53;9.68;;;5.17;;
22435;SDS011;11385;50.822;4.324;2023-09-07T00:22:22;10.38;;;5.22;;
22435;SDS011;11385;50.822;4.324;2023-09-07T00:24:49;8.30;;;4.72;;
22435;SDS011;11385;50.822;4.324;2023-09-07T00:27:16;6.55;;;5.00;;
22435;SDS011;11385;50.822;4.324;2023-09-07T00:29:44;8.50;;;5.03;;
22435;SDS011;11385;50.822;4.324;2023-09-07T00:32:10;8.05;;;5.70;;
22435;SDS011;11385;50.822;4.324;2023-09-07T00:34:37;9.33;;;5.53;;
22435;SDS011;11385;50.822;4.324;2023-09-07T00:37:03;13.10;;;6.00;;
22435;SDS011;11385;50.822;4.324;2023-09-07T00:39:30;8.60;;;5.35;;
22435;SDS011;11385;50.822;4.324;2023-09-07T00:41:57;11.85;;;6.30;;
22435;SDS011;11385;50.822;4.324;2023-09-07T00:44:23;9.80;;;6.47;;
22435;SDS011;11385;50.822;4.324;2023-09-07T00:46:50;11.80;;;6.17;;
22435;SDS011;11385;50.822;4.324;2023-09-07T00:49:17;10.35;;;5.55;;
22435;SDS011;11385;50.822;4.324;2023-09-07T00:51:43;7.75;;;5.05;;
22435;SDS011;11385;50.822;4.324;2023-09-07T00:54:10;5.75;;;3.70;;
22435;SDS011;11385;50.822;4.324;2023-09-07T00:56:37;8.13;;;4.08;;
22435;SDS011;11385;50.822;4.324;2023-09-07T00:59:04;7.10;;;4.22;;
22435;SDS011;11385;50.822;4.324;2023-09-07T01:01:32;5.45;;;3.75;;
22435;SDS011;11385;50.822;4.324;2023-09-07T01:04:01;7.85;;;3.83;;
22435;SDS011;11385;50.822;4.324;2023-09-07T01:06:30;7.92;;;3.42;;
22435;SDS011;11385;50.822;4.324;2023-09-07T01:09:10;5.80;;;3.62;;
22435;SDS011;11385;50.822;4.324;2023-09-07T01:11:40;6.62;;;4.22;;
22435;SDS011;11385;50.822;4.324;2023-09-07T01:14:06;9.40;;;4.65;;
22435;SDS011;11385;50.822;4.324;2023-09-07T01:16:33;8.78;;;4.60;;
22435;SDS011;11385;50.822;4.324;2023-09-07T01:19:01;8.90;;;4.80;;
22435;SDS011;11385;50.822;4.324;2023-09-07T01:21:34;9.60;;;4.40;;
22435;SDS011;11385;50.822;4.324;2023-09-07T01:24:03;6.60;;;4.42;;
22435;SDS011;11385;50.822;4.324;2023-09-07T01:26:32;9.93;;;4.87;;
22435;SDS011;11385;50.822;4.324;2023-09-07T01:29:00;6.25;;;4.20;;
22435;SDS011;11385;50.822;4.324;2023-09-07T01:31:27;8.40;;;5.15;;
22435;SDS011;11385;50.822;4.324;2023-09-07T01:33:54;7.08;;;4.97;;
22435;SDS011;11385;50.822;4.324;2023-09-07T01:36:20;7.75;;;5.75;;
22435;SDS011;11385;50.822;4.324;2023-09-07T01:38:47;11.68;;;5.65;;
22435;SDS011;11385;50.822;4.324;2023-09-07T01:41:14;9.30;;;5.78;;
22435;SDS011;11385;50.822;4.324;2023-09-07T01:43:40;10.45;;;5.87;;
22435;SDS011;11385;50.822;4.324;2023-09-07T01:46:07;11.05;;;6.33;;
22435;SDS011;11385;50.822;4.324;2023-09-07T01:48:33;11.57;;;5.90;;
22435;SDS011;11385;50.822;4.324;2023-09-07T01:51:00;10.85;;;5.42;;
22435;SDS011;11385;50.822;4.324;2023-09-07T01:53:27;9.03;;;5.60;;
22435;SDS011;11385;50.822;4.324;2023-09-07T01:55:54;8.35;;;5.35;;
22435;SDS011;11385;50.822;4.324;2023-09-07T01:58:22;9.68;;;5.55;;
22435;SDS011;11385;50.822;4.324;2023-09-07T02:00:52;10.15;;;6.12;;
22435;SDS011;11385;50.822;4.324;2023-09-07T02:03:21;11.00;;;6.15;;
22435;SDS011;11385;50.822;4.324;2023-09-07T02:05:48;8.00;;;5.62;;
22435;SDS011;11385;50.822;4.324;2023-09-07T02:08:14;10.38;;;5.92;;
22435;SDS011;11385;50.822;4.324;2023-09-07T02:10:41;15.35;;;6.45;;
22435;SDS011;11385;50.822;4.324;2023-09-07T02:13:08;10.08;;;5.62;;
22435;SDS011;11385;50.822;4.324;2023-09-07T02:15:37;9.95;;;6.45;;
22435;SDS011;11385;50.822;4.324;2023-09-07T02:18:05;11.33;;;6.05;;
22435;SDS011;11385;50.822;4.324;2023-09-07T02:20:32;15.50;;;6.62;;
22435;SDS011;11385;50.822;4.324;2023-09-07T02:22:59;15.55;;;6.67;;
22435;SDS011;11385;50.822;4.324;2023-09-07T02:25:26;12.73;;;6.60;;
22435;SDS011;11385;50.822;4.324;2023-09-07T02:27:53;12.55;;;6.40;;
22435;SDS011;11385;50.822;4.324;2023-09-07T02:30:20;13.58;;;6.60;;
22435;SDS011;11385;50.822;4.324;2023-09-07T02:32:46;11.83;;;6.67;;
22435;SDS011;11385;50.822;4.324;2023-09-07T02:35:13;12.20;;;6.58;;
22435;SDS011;11385;50.822;4.324;2023-09-07T02:37:40;11.65;;;6.12;;
22435;SDS011;11385;50.822;4.324;2023-09-07T02:40:07;15.72;;;6.78;;
22435;SDS011;11385;50.822;4.324;2023-09-07T02:42:35;17.55;;;6.70;;
22435;SDS011;11385;50.822;4.324;2023-09-07T02:45:01;18.45;;;6.67;;
22435;SDS011;11385;50.822;4.324;2023-09-07T02:47:28;19.50;;;7.10;;
22435;SDS011;11385;50.822;4.324;2023-09-07T02:49:55;18.85;;;6.92;;
22435;SDS011;11385;50.822;4.324;2023-09-07T02:52:21;18.75;;;6.87;;
22435;SDS011;11385;50.822;4.324;2023-09-07T02:54:48;14.35;;;7.00;;
22435;SDS011;11385;50.822;4.324;2023-09-07T02:57:15;16.05;;;6.50;;
22435;SDS011;11385;50.822;4.324;2023-09-07T02:59:41;16.15;;;7.28;;
22435;SDS011;11385;50.822;4.324;2023-09-07T03:02:08;15.80;;;7.22;;
22435;SDS011;11385;50.822;4.324;2023-09-07T03:04:35;15.38;;;6.42;;
22435;SDS011;11385;50.822;4.324;2023-09-07T03:07:01;16.73;;;6.78;;
22435;SDS011;11385;50.822;4.324;2023-09-07T03:09:28;17.62;;;7.17;;
22435;SDS011;11385;50.822;4.324;2023-09-07T03:11:55;15.35;;;7.03;;
22435;SDS011;11385;50.822;4.324;2023-09-07T03:14:21;12.58;;;6.55;;
22435;SDS011;11385;50.822;4.324;2023-09-07T03:16:48;16.67;;;7.00;;
22435;SDS011;11385;50.822;4.324;2023-09-07T03:19:15;17.82;;;7.35;;
22435;SDS011;11385;50.822;4.324;2023-09-07T03:21:42;15.10;;;7.12;;
22435;SDS011;11385;50.822;4.324;2023-09-07T03:24:09;19.70;;;7.92;;
22435;SDS011;11385;50.822;4.324;2023-09-07T03:26:36;16.12;;;6.70;;
22435;SDS011;11385;50.822;4.324;2023-09-07T03:29:02;16.93;;;6.92;;
22435;SDS011;11385;50.822;4.324;2023-09-07T03:31:29;16.73;;;7.33;;
22435;SDS011;11385;50.822;4.324;2023-09-07T03:33:56;16.37;;;7.25;;
22435;SDS011;11385;50.822;4.324;2023-09-07T03:36:23;16.87;;;7.47;;
22435;SDS011;11385;50.822;4.324;2023-09-07T03:38:49;16.75;;;6.80;;
22435;SDS011;11385;50.822;4.324;2023-09-07T03:41:16;15.68;;;6.78;;
22435;SDS011;11385;50.822;4.324;2023-09-07T03:43:43;13.72;;;6.30;;
22435;SDS011;11385;50.822;4.324;2023-09-07T03:46:10;14.43;;;6.85;;
22435;SDS011;11385;50.822;4.324;2023-09-07T03:48:36;18.95;;;6.70;;
22435;SDS011;11385;50.822;4.324;2023-09-07T03:51:06;15.23;;;6.45;;
22435;SDS011;11385;50.822;4.324;2023-09-07T03:53:33;22.35;;;7.22;;
22435;SDS011;11385;50.822;4.324;2023-09-07T03:56:01;14.20;;;7.00;;
22435;SDS011;11385;50.822;4.324;2023-09-07T03:58:29;13.75;;;6.45;;
22435;SDS011;11385;50.822;4.324;2023-09-07T04:00:58;10.15;;;5.72;;
22435;SDS011;11385;50.822;4.324;2023-09-07T04:03:25;13.35;;;6.35;;
22435;SDS011;11385;50.822;4.324;2023-09-07T04:05:54;11.28;;;5.97;;
22435;SDS011;11385;50.822;4.324;2023-09-07T04:08:23;11.93;;;6.22;;
22435;SDS011;11385;50.822;4.324;2023-09-07T04:10:49;10.25;;;6.03;;
22435;SDS011;11385;50.822;4.324;2023-09-07T04:13:16;9.80;;;5.85;;
22435;SDS011;11385;50.822;4.324;2023-09-07T04:15:43;8.78;;;5.60;;
22435;SDS011;11385;50.822;4.324;2023-09-07T04:18:11;10.13;;;5.95;;
22435;SDS011;11385;50.822;4.324;2023-09-07T04:20:40;8.73;;;5.40;;
22435;SDS011;11385;50.822;4.324;2023-09-07T04:23:07;11.15;;;5.87;;
22435;SDS011;11385;50.822;4.324;2023-09-07T04:25:34;8.73;;;6.12;;
22435;SDS011;11385;50.822;4.324;2023-09-07T04:28:00;9.23;;;5.37;;
22435;SDS011;11385;50.822;4.324;2023-09-07T04:30:27;9.65;;;6.00;;
22435;SDS011;11385;50.822;4.324;2023-09-07T04:32:54;8.60;;;5.62;;
22435;SDS011;11385;50.822;4.324;2023-09-07T04:35:20;9.53;;;6.25;;
22435;SDS011;11385;50.822;4.324;2023-09-07T04:37:47;7.92;;;5.95;;
22435;SDS011;11385;50.822;4.324;2023-09-07T04:40:14;10.95;;;5.90;;
22435;SDS011;11385;50.822;4.324;2023-09-07T04:42:40;9.30;;;5.87;;
22435;SDS011;11385;50.822;4.324;2023-09-07T04:45:07;8.48;;;5.90;;
22435;SDS011;11385;50.822;4.324;2023-09-07T04:47:34;9.40;;;6.03;;
22435;SDS011;11385;50.822;4.324;2023-09-07T04:50:02;10.80;;;5.75;;
22435;SDS011;11385;50.822;4.324;2023-09-07T04:52:31;10.43;;;5.58;;
22435;SDS011;11385;50.822;4.324;2023-09-07T04:54:58;11.28;;;6.53;;
22435;SDS011;11385;50.822;4.324;2023-09-07T04:57:25;10.82;;;6.15;;
22435;SDS011;11385;50.822;4.324;2023-09-07T04:59:51;9.50;;;6.47;;
22435;SDS011;11385;50.822;4.324;2023-09-07T05:02:18;9.95;;;6.40;;
22435;SDS011;11385;50.822;4.324;2023-09-07T05:04:45;8.58;;;6.75;;
22435;SDS011;11385;50.822;4.324;2023-09-07T05:07:11;9.75;;;6.22;;
22435;SDS011;11385;50.822;4.324;2023-09-07T05:09:38;12.33;;;7.15;;
22435;SDS011;11385;50.822;4.324;2023-09-07T05:12:05;11.10;;;6.55;;
22435;SDS011;11385;50.822;4.324;2023-09-07T05:14:32;12.70;;;6.47;;
22435;SDS011;11385;50.822;4.324;2023-09-07T05:16:58;11.97;;;7.30;;
22435;SDS011;11385;50.822;4.324;2023-09-07T05:19:25;16.62;;;6.70;;
22435;SDS011;11385;50.822;4.324;2023-09-07T05:21:53;13.55;;;6.47;;
22435;SDS011;11385;50.822;4.324;2023-09-07T05:24:19;10.53;;;6.53;;
22435;SDS011;11385;50.822;4.324;2023-09-07T05:26:46;13.03;;;6.75;;
22435;SDS011;11385;50.822;4.324;2023-09-07T05:29:12;11.35;;;7.22;;
22435;SDS011;11385;50.822;4.324;2023-09-07T05:31:39;11.18;;;7.00;;
22435;SDS011;11385;50.822;4.324;2023-09-07T05:34:06;10.43;;;7.30;;
22435;SDS011;11385;50.822;4.324;2023-09-07T05:36:32;12.80;;;8.98;;
22435;SDS011;11385;50.822;4.324;2023-09-07T05:38:59;13.10;;;6.80;;
22435;SDS011;11385;50.822;4.324;2023-09-07T05:41:27;12.23;;;7.08;;
22435;SDS011;11385;50.822;4.324;2023-09-07T05:43:54;9.58;;;6.85;;
22435;SDS011;11385;50.822;4.324;2023-09-07T05:46:21;10.75;;;6.92;;
22435;SDS011;11385;50.822;4.324;2023-09-07T05:48:48;14.73;;;6.78;;
22435;SDS011;11385;50.822;4.324;2023-09-07T05:51:14;11.45;;;6.87;;
22435;SDS011;11385;50.822;4.324;2023-09-07T05:53:41;14.00;;;8.08;;
22435;SDS011;11385;50.822;4.324;2023-09-07T05:56:08;12.82;;;8.38;;
22435;SDS011;11385;50.822;4.324;2023-09-07T05:58:34;20.05;;;14.93;;
22435;SDS011;11385;50.822;4.324;2023-09-07T06:01:01;14.35;;;8.83;;
22435;SDS011;11385;50.822;4.324;2023-09-07T06:03:30;12.58;;;7.40;;
22435;SDS011;11385;50.822;4.324;2023-09-07T06:05:58;11.97;;;6.17;;
22435;SDS011;11385;50.822;4.324;2023-09-07T06:08:24;10.65;;;6.50;;
22435;SDS011;11385;50.822;4.324;2023-09-07T06:10:52;9.70;;;6.25;;
22435;SDS011;11385;50.822;4.324;2023-09-07T06:13:19;10.18;;;6.20;;
22435;SDS011;11385;50.822;4.324;2023-09-07T06:15:47;11.25;;;6.33;;
22435;SDS011;11385;50.822;4.324;2023-09-07T06:18:13;12.35;;;6.97;;
22435;SDS011;11385;50.822;4.324;2023-09-07T06:20:40;11.40;;;7.25;;
22435;SDS011;11385;50.822;4.324;2023-09-07T06:23:08;11.22;;;7.50;;
22435;SDS011;11385;50.822;4.324;2023-09-07T06:25:34;13.00;;;6.17;;
22435;SDS011;11385;50.822;4.324;2023-09-07T06:28:01;12.05;;;6.78;;
22435;SDS011;11385;50.822;4.324;2023-09-07T06:30:27;11.97;;;7.10;;
22435;SDS011;11385;50.822;4.324;2023-09-07T06:32:54;14.47;;;7.25;;
22435;SDS011;11385;50.822;4.324;2023-09-07T06:35:22;12.13;;;6.12;;
22435;SDS011;11385;50.822;4.324;2023-09-07T06:37:48;11.12;;;6.22;;
22435;SDS011;11385;50.822;4.324;2023-09-07T06:40:15;9.90;;;6.30;;
22435;SDS011;11385;50.822;4.324;2023-09-07T06:42:43;13.53;;;6.60;;
22435;SDS011;11385;50.822;4.324;2023-09-07T06:45:10;14.28;;;6.40;;
22435;SDS011;11385;50.822;4.324;2023-09-07T06:47:37;9.78;;;6.03;;
22435;SDS011;11385;50.822;4.324;2023-09-07T06:50:04;10.40;;;5.50;;
22435;SDS011;11385;50.822;4.324;2023-09-07T06:52:31;10.88;;;6.12;;
22435;SDS011;11385;50.822;4.324;2023-09-07T06:54:58;10.80;;;6.00;;
22435;SDS011;11385;50.822;4.324;2023-09-07T06:57:25;10.35;;;6.85;;
22435;SDS011;11385;50.822;4.324;2023-09-07T06:59:51;9.53;;;6.45;;
22435;SDS011;11385;50.822;4.324;2023-09-07T07:02:18;9.30;;;5.33;;
22435;SDS011;11385;50.822;4.324;2023-09-07T07:04:45;8.48;;;6.15;;
22435;SDS011;11385;50.822;4.324;2023-09-07T07:07:12;11.03;;;5.72;;
22435;SDS011;11385;50.822;4.324;2023-09-07T07:09:38;10.43;;;5.67;;
22435;SDS011;11385;50.822;4.324;2023-09-07T07:12:05;11.43;;;5.58;;
22435;SDS011;11385;50.822;4.324;2023-09-07T07:14:32;11.68;;;5.55;;
22435;SDS011;11385;50.822;4.324;2023-09-07T07:16:58;9.13;;;5.10;;
22435;SDS011;11385;50.822;4.324;2023-09-07T07:19:27;8.65;;;5.05;;
22435;SDS011;11385;50.822;4.324;2023-09-07T07:21:54;9.68;;;4.90;;
22435;SDS011;11385;50.822;4.324;2023-09-07T07:24:20;9.58;;;5.33;;
22435;SDS011;11385;50.822;4.324;2023-09-07T07:26:47;9.08;;;4.55;;
22435;SDS011;11385;50.822;4.324;2023-09-07T07:29:14;7.28;;;4.33;;
22435;SDS011;11385;50.822;4.324;2023-09-07T07:31:40;9.03;;;5.37;;
22435;SDS011;11385;50.822;4.324;2023-09-07T07:34:07;8.80;;;5.03;;
22435;SDS011;11385;50.822;4.324;2023-09-07T07:36:33;12.82;;;5.20;;
22435;SDS011;11385;50.822;4.324;2023-09-07T07:39:02;15.25;;;5.00;;
22435;SDS011;11385;50.822;4.324;2023-09-07T07:41:29;6.90;;;4.35;;
22435;SDS011;11385;50.822;4.324;2023-09-07T07:43:56;10.50;;;5.20;;
22435;SDS011;11385;50.822;4.324;2023-09-07T07:46:23;8.90;;;4.62;;
22435;SDS011;11385;50.822;4.324;2023-09-07T07:48:49;7.00;;;4.22;;
22435;SDS011;11385;50.822;4.324;2023-09-07T07:51:16;7.03;;;4.60;;
22435;SDS011;11385;50.822;4.324;2023-09-07T07:53:42;8.55;;;3.80;;
22435;SDS011;11385;50.822;4.324;2023-09-07T07:56:14;7.92;;;3.98;;
22435;SDS011;11385;50.822;4.324;2023-09-07T07:58:42;8.43;;;4.50;;
22435;SDS011;11385;50.822;4.324;2023-09-07T08:03:42;24.80;;;5.42;;
22435;SDS011;11385;50.822;4.324;2023-09-07T08:06:10;8.20;;;4.03;;
22435;SDS011;11385;50.822;4.324;2023-09-07T08:08:37;11.18;;;4.95;;
22435;SDS011;11385;50.822;4.324;2023-09-07T08:11:05;6.78;;;4.08;;
22435;SDS011;11385;50.822;4.324;2023-09-07T08:13:32;8.08;;;4.22;;
22435;SDS011;11385;50.822;4.324;2023-09-07T08:16:00;10.80;;;4.35;;
22435;SDS011;11385;50.822;4.324;2023-09-07T08:18:28;8.75;;;3.87;;
22435;SDS011;11385;50.822;4.324;2023-09-07T08:20:57;12.88;;;4.70;;
22435;SDS011;11385;50.822;4.324;2023-09-07T08:23:24;9.80;;;4.37;;
22435;SDS011;11385;50.822;4.324;2023-09-07T08:25:51;8.48;;;4.12;;
22435;SDS011;11385;50.822;4.324;2023-09-07T08:28:18;10.82;;;5.05;;
22435;SDS011;11385;50.822;4.324;2023-09-07T08:30:48;6.75;;;3.80;;
22435;SDS011;11385;50.822;4.324;2023-09-07T08:33:18;6.03;;;3.65;;
22435;SDS011;11385;50.822;4.324;2023-09-07T08:35:45;6.58;;;3.95;;
22435;SDS011;11385;50.822;4.324;2023-09-07T08:38:16;7.85;;;4.25;;
22435;SDS011;11385;50.822;4.324;2023-09-07T08:40:42;9.28;;;4.42;;
22435;SDS011;11385;50.822;4.324;2023-09-07T08:43:11;7.85;;;3.40;;
22435;SDS011;11385;50.822;4.324;2023-09-07T08:45:42;6.15;;;3.60;;
22435;SDS011;11385;50.822;4.324;2023-09-07T08:48:13;5.50;;;3.85;;
22435;SDS011;11385;50.822;4.324;2023-09-07T08:50:44;4.92;;;3.85;;
22435;SDS011;11385;50.822;4.324;2023-09-07T08:53:13;7.47;;;3.95;;
22435;SDS011;11385;50.822;4.324;2023-09-07T08:55:40;6.37;;;3.55;;
22435;SDS011;11385;50.822;4.324;2023-09-07T08:58:07;6.60;;;3.15;;
22435;SDS011;11385;50.822;4.324;2023-09-07T09:00:33;5.70;;;3.22;;
22435;SDS011;11385;50.822;4.324;2023-09-07T09:03:03;5.58;;;3.20;;
22435;SDS011;11385;50.822;4.324;2023-09-07T09:05:30;5.87;;;3.50;;
22435;SDS011;11385;50.822;4.324;2023-09-07T09:08:02;6.78;;;3.47;;
22435;SDS011;11385;50.822;4.324;2023-09-07T09:10:31;5.58;;;3.83;;
22435;SDS011;11385;50.822;4.324;2023-09-07T09:12:57;8.70;;;3.62;;
22435;SDS011;11385;50.822;4.324;2023-09-07T09:15:27;5.85;;;3.42;;
22435;SDS011;11385;50.822;4.324;2023-09-07T09:17:53;7.00;;;3.77;;
22435;SDS011;11385;50.822;4.324;2023-09-07T09:20:21;7.05;;;3.80;;
22435;SDS011;11385;50.822;4.324;2023-09-07T09:22:50;5.05;;;3.33;;
22435;SDS011;11385;50.822;4.324;2023-09-07T09:25:19;5.65;;;3.83;;
22435;SDS011;11385;50.822;4.324;2023-09-07T09:27:46;7.25;;;4.17;;
22435;SDS011;11385;50.822;4.324;2023-09-07T09:30:14;5.78;;;3.85;;
22435;SDS011;11385;50.822;4.324;2023-09-07T09:32:42;7.17;;;3.67;;
22435;SDS011;11385;50.822;4.324;2023-09-07T09:35:09;8.20;;;3.70;;
22435;SDS011;11385;50.822;4.324;2023-09-07T09:40:09;7.62;;;5.97;;
22435;SDS011;11385;50.822;4.324;2023-09-07T09:42:37;6.00;;;4.20;;
22435;SDS011;11385;50.822;4.324;2023-09-07T09:45:05;5.65;;;3.45;;
22435;SDS011;11385;50.822;4.324;2023-09-07T09:47:34;10.43;;;3.35;;
22435;SDS011;11385;50.822;4.324;2023-09-07T09:50:06;5.03;;;3.25;;
22435;SDS011;11385;50.822;4.324;2023-09-07T09:52:34;5.10;;;3.50;;
22435;SDS011;11385;50.822;4.324;2023-09-07T09:55:03;6.83;;;3.87;;
22435;SDS011;11385;50.822;4.324;2023-09-07T10:00:01;7.70;;;4.20;;
22435;SDS011;11385;50.822;4.324;2023-09-07T10:02:31;5.53;;;3.47;;
22435;SDS011;11385;50.822;4.324;2023-09-07T10:05:00;8.15;;;4.00;;
22435;SDS011;11385;50.822;4.324;2023-09-07T10:10:03;7.67;;;3.65;;
22435;SDS011;11385;50.822;4.324;2023-09-07T10:12:30;6.67;;;3.87;;
22435;SDS011;11385;50.822;4.324;2023-09-07T10:14:59;7.30;;;4.42;;
22435;SDS011;11385;50.822;4.324;2023-09-07T10:17:26;16.55;;;5.10;;
22435;SDS011;11385;50.822;4.324;2023-09-07T10:20:07;18.23;;;4.70;;
22435;SDS011;11385;50.822;4.324;2023-09-07T10:22:35;8.68;;;3.83;;
22435;SDS011;11385;50.822;4.324;2023-09-07T10:25:01;8.95;;;4.05;;
22435;SDS011;11385;50.822;4.324;2023-09-07T10:27:36;8.23;;;4.40;;
22435;SDS011;11385;50.822;4.324;2023-09-07T10:30:09;8.03;;;4.42;;
22435;SDS011;11385;50.822;4.324;2023-09-07T10:32:38;7.03;;;4.30;;
22435;SDS011;11385;50.822;4.324;2023-09-07T10:35:13;6.28;;;3.83;;
22435;SDS011;11385;50.822;4.324;2023-09-07T10:37:44;6.87;;;4.15;;
22435;SDS011;11385;50.822;4.324;2023-09-07T10:40:12;6.08;;;3.52;;
22435;SDS011;11385;50.822;4.324;2023-09-07T10:42:41;6.20;;;4.03;;
22435;SDS011;11385;50.822;4.324;2023-09-07T10:45:10;6.28;;;3.77;;
22435;SDS011;11385;50.822;4.324;2023-09-07T10:47:41;6.15;;;3.75;;
22435;SDS011;11385;50.822;4.324;2023-09-07T10:50:10;7.55;;;4.08;;
22435;SDS011;11385;50.822;4.324;2023-09-07T10:52:39;7.15;;;4.47;;
22435;SDS011;11385;50.822;4.324;2023-09-07T10:55:07;9.00;;;3.90;;
22435;SDS011;11385;50.822;4.324;2023-09-07T10:57:41;8.60;;;4.00;;
22435;SDS011;11385;50.822;4.324;2023-09-07T11:00:10;7.70;;;4.10;;
22435;SDS011;11385;50.822;4.324;2023-09-07T11:02:38;8.40;;;4.00;;
22435;SDS011;11385;50.822;4.324;2023-09-07T11:05:05;6.42;;;3.70;;
22435;SDS011;11385;50.822;4.324;2023-09-07T11:07:32;6.70;;;3.52;;
22435;SDS011;11385;50.822;4.324;2023-09-07T11:09:59;7.78;;;3.80;;
22435;SDS011;11385;50.822;4.324;2023-09-07T11:12:28;5.08;;;3.90;;
22435;SDS011;11385;50.822;4.324;2023-09-07T11:14:55;5.87;;;4.20;;
22435;SDS011;11385;50.822;4.324;2023-09-07T11:17:25;7.17;;;3.62;;
22435;SDS011;11385;50.822;4.324;2023-09-07T11:19:54;5.35;;;3.42;;
22435;SDS011;11385;50.822;4.324;2023-09-07T11:22:21;7.37;;;3.55;;
22435;SDS011;11385;50.822;4.324;2023-09-07T11:24:49;5.65;;;4.03;;
22435;SDS011;11385;50.822;4.324;2023-09-07T11:27:17;6.17;;;3.92;;
22435;SDS011;11385;50.822;4.324;2023-09-07T11:29:50;6.12;;;4.08;;
22435;SDS011;11385;50.822;4.324;2023-09-07T11:32:18;8.88;;;4.22;;
22435;SDS011;11385;50.822;4.324;2023-09-07T11:34:48;7.90;;;5.33;;
22435;SDS011;11385;50.822;4.324;2023-09-07T11:37:16;9.73;;;6.40;;
22435;SDS011;11385;50.822;4.324;2023-09-07T11:39:47;12.07;;;9.85;;
22435;SDS011;11385;50.822;4.324;2023-09-07T11:42:14;8.20;;;3.92;;
22435;SDS011;11385;50.822;4.324;2023-09-07T11:44:40;6.50;;;3.42;;
22435;SDS011;11385;50.822;4.324;2023-09-07T11:47:07;6.62;;;3.50;;
22435;SDS011;11385;50.822;4.324;2023-09-07T11:49:34;6.67;;;3.62;;
22435;SDS011;11385;50.822;4.324;2023-09-07T11:52:01;7.25;;;3.37;;
22435;SDS011;11385;50.822;4.324;2023-09-07T11:54:27;7.72;;;3.58;;
22435;SDS011;11385;50.822;4.324;2023-09-07T11:56:54;6.55;;;3.70;;
22435;SDS011;11385;50.822;4.324;2023-09-07T11:59:20;6.55;;;3.50;;
22435;SDS011;11385;50.822;4.324;2023-09-07T12:01:47;7.10;;;3.72;;
22435;SDS011;11385;50.822;4.324;2023-09-07T12:04:14;7.42;;;3.05;;
22435;SDS011;11385;50.822;4.324;2023-09-07T12:06:40;7.83;;;3.70;;
22435;SDS011;11385;50.822;4.324;2023-09-07T12:09:08;5.12;;;3.35;;
22435;SDS011;11385;50.822;4.324;2023-09-07T12:11:35;5.72;;;2.80;;
22435;SDS011;11385;50.822;4.324;2023-09-07T12:14:02;5.58;;;3.37;;
22435;SDS011;11385;50.822;4.324;2023-09-07T12:16:29;6.17;;;3.60;;
22435;SDS011;11385;50.822;4.324;2023-09-07T12:18:56;5.42;;;3.20;;
22435;SDS011;11385;50.822;4.324;2023-09-07T12:21:22;6.12;;;3.35;;
22435;SDS011;11385;50.822;4.324;2023-09-07T12:23:49;7.58;;;3.52;;
22435;SDS011;11385;50.822;4.324;2023-09-07T12:26:16;6.50;;;2.90;;
22435;SDS011;11385;50.822;4.324;2023-09-07T12:28:45;5.20;;;2.75;;
22435;SDS011;11385;50.822;4.324;2023-09-07T12:31:11;5.53;;;3.35;;
22435;SDS011;11385;50.822;4.324;2023-09-07T12:33:40;11.28;;;3.33;;
22435;SDS011;11385;50.822;4.324;2023-09-07T12:36:07;5.47;;;3.37;;
22435;SDS011;11385;50.822;4.324;2023-09-07T12:38:35;4.55;;;3.22;;
22435;SDS011;11385;50.822;4.324;2023-09-07T12:41:02;10.25;;;3.70;;
22435;SDS011;11385;50.822;4.324;2023-09-07T12:43:29;5.40;;;3.55;;
22435;SDS011;11385;50.822;4.324;2023-09-07T12:45:56;7.60;;;3.30;;
22435;SDS011;11385;50.822;4.324;2023-09-07T12:48:23;5.72;;;3.72;;
22435;SDS011;11385;50.822;4.324;2023-09-07T12:50:50;5.45;;;3.70;;
22435;SDS011;11385;50.822;4.324;2023-09-07T12:53:16;6.42;;;3.55;;
22435;SDS011;11385;50.822;4.324;2023-09-07T12:55:45;8.43;;;3.40;;
22435;SDS011;11385;50.822;4.324;2023-09-07T12:58:11;8.90;;;3.50;;
22435;SDS011;11385;50.822;4.324;2023-09-07T13:00:38;6.47;;;3.37;;
22435;SDS011;11385;50.822;4.324;2023-09-07T13:03:04;5.92;;;3.47;;
22435;SDS011;11385;50.822;4.324;2023-09-07T13:05:31;6.62;;;2.92;;
22435;SDS011;11385;50.822;4.324;2023-09-07T13:07:59;8.55;;;3.15;;
22435;SDS011;11385;50.822;4.324;2023-09-07T13:10:27;6.92;;;3.00;;
22435;SDS011;11385;50.822;4.324;2023-09-07T13:12:55;7.03;;;3.12;;
22435;SDS011;11385;50.822;4.324;2023-09-07T13:15:21;4.40;;;2.90;;
22435;SDS011;11385;50.822;4.324;2023-09-07T13:17:48;8.13;;;3.15;;
22435;SDS011;11385;50.822;4.324;2023-09-07T13:20:14;5.70;;;3.10;;
22435;SDS011;11385;50.822;4.324;2023-09-07T13:22:42;5.05;;;3.42;;
22435;SDS011;11385;50.822;4.324;2023-09-07T13:25:08;6.20;;;3.47;;
22435;SDS011;11385;50.822;4.324;2023-09-07T13:27:35;4.80;;;3.15;;
22435;SDS011;11385;50.822;4.324;2023-09-07T13:30:02;6.33;;;3.72;;
22435;SDS011;11385;50.822;4.324;2023-09-07T13:32:29;6.83;;;3.50;;
22435;SDS011;11385;50.822;4.324;2023-09-07T13:34:58;6.75;;;3.30;;
22435;SDS011;11385;50.822;4.324;2023-09-07T13:37:24;7.00;;;3.72;;
22435;SDS011;11385;50.822;4.324;2023-09-07T13:39:51;5.30;;;3.67;;
22435;SDS011;11385;50.822;4.324;2023-09-07T13:42:17;10.65;;;3.80;;
22435;SDS011;11385;50.822;4.324;2023-09-07T13:44:44;8.65;;;7.20;;
22435;SDS011;11385;50.822;4.324;2023-09-07T13:47:13;8.00;;;5.75;;
22435;SDS011;11385;50.822;4.324;2023-09-07T13:49:39;4.62;;;3.45;;
22435;SDS011;11385;50.822;4.324;2023-09-07T13:52:06;3.98;;;3.02;;
22435;SDS011;11385;50.822;4.324;2023-09-07T13:54:32;7.95;;;3.62;;
22435;SDS011;11385;50.822;4.324;2023-09-07T13:56:59;6.85;;;3.00;;
22435;SDS011;11385;50.822;4.324;2023-09-07T13:59:26;12.23;;;9.10;;
22435;SDS011;11385;50.822;4.324;2023-09-07T14:01:54;7.42;;;3.50;;
22435;SDS011;11385;50.822;4.324;2023-09-07T14:04:20;6.17;;;3.70;;
22435;SDS011;11385;50.822;4.324;2023-09-07T14:06:47;6.40;;;3.20;;
22435;SDS011;11385;50.822;4.324;2023-09-07T14:09:14;8.10;;;3.85;;
22435;SDS011;11385;50.822;4.324;2023-09-07T14:11:40;9.18;;;3.80;;
22435;SDS011;11385;50.822;4.324;2023-09-07T14:14:07;7.83;;;3.30;;
22435;SDS011;11385;50.822;4.324;2023-09-07T14:16:34;5.92;;;3.60;;
22435;SDS011;11385;50.822;4.324;2023-09-07T14:19:00;5.85;;;3.22;;
22435;SDS011;11385;50.822;4.324;2023-09-07T14:21:27;6.83;;;3.40;;
22435;SDS011;11385;50.822;4.324;2023-09-07T14:23:53;8.18;;;4.17;;
22435;SDS011;11385;50.822;4.324;2023-09-07T14:26:21;6.30;;;3.52;;
22435;SDS011;11385;50.822;4.324;2023-09-07T14:28:48;6.10;;;2.80;;
22435;SDS011;11385;50.822;4.324;2023-09-07T14:31:16;5.30;;;3.47;;
22435;SDS011;11385;50.822;4.324;2023-09-07T14:33:43;6.17;;;3.20;;
22435;SDS011;11385;50.822;4.324;2023-09-07T14:36:10;7.42;;;4.62;;
22435;SDS011;11385;50.822;4.324;2023-09-07T14:38:36;7.35;;;3.15;;
22435;SDS011;11385;50.822;4.324;2023-09-07T14:41:10;5.58;;;3.33;;
22435;SDS011;11385;50.822;4.324;2023-09-07T14:43:39;7.30;;;3.60;;
22435;SDS011;11385;50.822;4.324;2023-09-07T14:46:06;5.83;;;3.15;;
22435;SDS011;11385;50.822;4.324;2023-09-07T14:48:32;4.12;;;3.08;;
22435;SDS011;11385;50.822;4.324;2023-09-07T14:50:59;6.70;;;2.95;;
22435;SDS011;11385;50.822;4.324;2023-09-07T14:53:26;6.60;;;3.08;;